createdAt,value
2022-10-05T00:11:33.356Z,80.57
2022-10-05T00:41:33.376Z,80.99
2022-10-05T01:11:33.359Z,81.08
2022-10-05T01:41:33.366Z,81.2
2022-10-05T02:11:33.368Z,81.45
2022-10-05T02:41:33.367Z,81.6
2022-10-05T03:11:33.383Z,82.17
2022-10-05T03:41:33.481Z,82.02
2022-10-05T04:11:33.378Z,82.28
2022-10-05T04:41:33.396Z,82.38
2022-10-05T05:11:33.408Z,82.01
2022-10-05T05:41:33.394Z,82.55
2022-10-05T06:11:33.407Z,82.57
2022-10-05T06:41:33.413Z,82.8
2022-10-05T07:11:33.421Z,82.76
2022-10-05T07:41:33.413Z,82.68
2022-10-05T08:11:33.430Z,82.5
2022-10-05T08:41:33.426Z,82.47
2022-10-05T09:11:33.435Z,81.92
2022-10-05T09:41:33.472Z,81.51
2022-10-05T10:11:33.444Z,80.67
2022-10-05T10:41:33.437Z,79.83
2022-10-05T11:11:33.444Z,79.07
2022-10-05T11:41:33.448Z,78.48
2022-10-05T12:11:33.454Z,77.58
2022-10-05T12:41:33.739Z,76.06
2022-10-05T13:11:33.469Z,74.65
2022-10-05T13:41:33.467Z,73.2
2022-10-05T14:11:33.459Z,72.3
2022-10-05T14:41:33.454Z,72.17
2022-10-05T15:11:33.473Z,72.27
2022-10-05T15:41:33.469Z,72.5
2022-10-05T16:11:33.463Z,72.91
2022-10-05T16:41:33.471Z,73.74
2022-10-05T17:11:33.471Z,74.62
2022-10-05T17:41:33.475Z,75.32
2022-10-05T18:11:33.484Z,76
2022-10-05T18:41:33.482Z,76.6
2022-10-05T19:11:33.485Z,77.21
2022-10-05T19:41:33.488Z,77.67
2022-10-05T20:11:33.497Z,78.25
2022-10-05T20:41:33.486Z,78.69
2022-10-05T21:11:33.480Z,79.12
2022-10-05T21:41:33.485Z,79.58
2022-10-05T22:11:33.502Z,80.21
2022-10-05T22:41:33.524Z,80.56
2022-10-05T23:11:33.518Z,80.96
2022-10-05T23:41:33.526Z,81.25
